Time;durP1;ratioP1;P1;durP2;ratioP2;P2;SDS_P1;SDS_P2;PMS_P1;PMS_P2;Temp;Humidity;BMP_temperature;BMP_pressure;BME280_temperature;BME280_humidity;BME280_pressure;Samples;Min_cycle;Max_cycle;Signal;HPM_P1;HPM_P2
2022/09/22 00:01:16;;;;;;;9.88;5.68;;;12.20;99.90;;;;;;5014859;28;20048;-67
2022/09/22 00:03:47;;;;;;;13.15;4.97;;;12.30;99.90;;;;;;5017742;28;20072;-67
2022/09/22 00:06:19;;;;;;;9.45;5.20;;;12.20;99.90;;;;;;5038359;28;20968;-67
2022/09/22 00:08:48;;;;;;;7.93;5.00;;;11.80;99.90;;;;;;5024587;28;20037;-67
2022/09/22 00:11:19;;;;;;;8.85;4.88;;;12.10;99.90;;;;;;5023085;28;20038;-67
2022/09/22 00:13:52;;;;;;;8.90;5.85;;;12.10;99.90;;;;;;5019321;28;20021;-67
2022/09/22 00:16:21;;;;;;;13.05;5.57;;;12.10;99.90;;;;;;5008406;28;20034;-67
2022/09/22 00:18:46;;;;;;;11.20;5.43;;;12.20;99.90;;;;;;5024723;28;20056;-67
2022/09/22 00:21:15;;;;;;;15.27;4.75;;;12.20;99.90;;;;;;5023276;28;20520;-67
2022/09/22 00:23:42;;;;;;;15.60;4.95;;;12.10;99.90;;;;;;5028280;28;20550;-67
2022/09/22 00:26:14;;;;;;;9.20;5.05;;;11.80;99.90;;;;;;5029198;28;20466;-67
2022/09/22 00:28:41;;;;;;;10.98;4.93;;;11.90;99.90;;;;;;5023237;28;20037;-67
2022/09/22 00:31:13;;;;;;;10.38;5.40;;;11.60;99.90;;;;;;5022800;28;20551;-67
2022/09/22 00:33:41;;;;;;;8.48;5.20;;;11.80;99.90;;;;;;5016684;28;20049;-66
2022/09/22 00:36:08;;;;;;;11.45;5.10;;;12.20;99.90;;;;;;5023398;28;20021;-67
2022/09/22 00:38:34;;;;;;;12.88;5.18;;;11.80;99.90;;;;;;5032842;28;20053;-67
2022/09/22 00:41:00;;;;;;;10.48;5.95;;;11.60;99.90;;;;;;5019701;28;20446;-67
2022/09/22 00:43:29;;;;;;;12.23;5.18;;;11.90;99.90;;;;;;5012225;28;20367;-67
2022/09/22 00:46:17;;;;;;;12.40;5.90;;;12.00;99.90;;;;;;5018487;28;20113;-67
2022/09/22 00:49:02;;;;;;;13.02;5.57;;;11.60;99.90;;;;;;5014235;28;20033;-67
2022/09/22 00:51:33;;;;;;;12.05;6.13;;;11.60;99.90;;;;;;5025763;28;20117;-67
2022/09/22 00:54:01;;;;;;;14.20;6.15;;;11.70;99.90;;;;;;5019765;28;20038;-67
2022/09/22 00:56:33;;;;;;;14.80;5.82;;;11.80;99.90;;;;;;5022190;28;20034;-67
2022/09/22 00:59:02;;;;;;;;;;;11.90;99.90;;;;;;5026734;28;20025;-66
2022/09/22 01:01:28;;;;;;;10.98;6.70;;;11.60;99.90;;;;;;5029792;28;20395;-67
2022/09/22 01:03:55;;;;;;;11.63;5.68;;;11.50;99.90;;;;;;5017280;28;20113;-67
2022/09/22 01:06:26;;;;;;;19.13;6.18;;;11.20;99.90;;;;;;5021267;28;20075;-67
2022/09/22 01:08:52;;;;;;;13.60;5.78;;;11.00;99.90;;;;;;5019989;28;20025;-67
2022/09/22 01:11:19;;;;;;;13.52;5.93;;;10.90;99.90;;;;;;5030995;28;20134;-67
2022/09/22 01:13:51;;;;;;;12.02;5.60;;;11.20;99.90;;;;;;5013545;28;20038;-67
2022/09/22 01:16:32;;;;;;;8.88;5.47;;;11.30;99.90;;;;;;5016632;28;20120;-67
2022/09/22 01:19:04;;;;;;;14.57;6.00;;;11.30;99.90;;;;;;5012862;28;20026;-67
2022/09/22 01:22:06;;;;;;;10.18;5.20;;;11.30;99.90;;;;;;5000862;28;20046;-67
2022/09/22 01:25:03;;;;;;;9.27;5.72;;;11.50;99.90;;;;;;4978823;28;20050;-66
2022/09/22 01:28:04;;;;;;;14.13;5.90;;;11.60;99.90;;;;;;5013723;28;20038;-67
2022/09/22 01:30:46;;;;;;;11.20;4.75;;;11.40;99.90;;;;;;4972759;28;20046;-67
2022/09/22 01:33:23;;;;;;;11.30;6.10;;;11.10;99.90;;;;;;5012683;28;20501;-66
2022/09/22 01:36:09;;;;;;;11.73;6.70;;;11.30;99.90;;;;;;5013743;28;20029;-67
2022/09/22 01:38:52;;;;;;;12.07;5.70;;;11.40;99.90;;;;;;5013824;28;20037;-67
2022/09/22 01:41:50;;;;;;;12.68;6.47;;;11.40;99.90;;;;;;5013360;28;20443;-67
2022/09/22 01:44:42;;;;;;;14.07;6.00;;;11.30;99.90;;;;;;5013511;28;20076;-66
2022/09/22 01:47:13;;;;;;;12.05;6.13;;;11.00;99.90;;;;;;5013986;28;20033;-67
2022/09/22 01:49:45;;;;;;;11.85;5.70;;;11.00;99.90;;;;;;5013502;28;20494;-67
2022/09/22 01:52:25;;;;;;;13.20;5.38;;;11.10;99.90;;;;;;5012484;28;20083;-67
2022/09/22 01:55:10;;;;;;;10.05;5.85;;;11.10;99.90;;;;;;5013307;28;20034;-67
2022/09/22 01:57:57;;;;;;;9.75;6.20;;;11.00;99.90;;;;;;5013301;28;20030;-67
2022/09/22 02:00:26;;;;;;;7.43;5.40;;;11.00;99.90;;;;;;5001137;28;20119;-67
2022/09/22 02:03:09;;;;;;;13.02;5.97;;;10.90;99.90;;;;;;5013163;28;20081;-67
2022/09/22 02:05:42;;;;;;;14.93;5.70;;;10.90;99.90;;;;;;5013520;28;20497;-67
2022/09/22 02:08:18;;;;;;;12.55;5.60;;;11.00;99.90;;;;;;5013343;28;20045;-67
2022/09/22 02:10:46;;;;;;;9.40;5.35;;;10.80;99.90;;;;;;5011909;28;20379;-67
2022/09/22 02:13:13;;;;;;;8.43;5.72;;;10.90;99.90;;;;;;5013230;28;20033;-67
2022/09/22 02:18:31;;;;;;;11.32;5.18;;;10.80;99.90;;;;;;5011862;28;20061;-67
2022/09/22 02:20:57;;;;;;;9.50;5.50;;;10.80;99.90;;;;;;5013306;28;20053;-67
2022/09/22 02:23:24;;;;;;;8.77;5.25;;;10.90;99.90;;;;;;5013062;28;20022;-66
2022/09/22 02:25:50;;;;;;;11.25;5.85;;;10.80;99.90;;;;;;5012744;28;20033;-67
2022/09/22 02:28:19;;;;;;;7.63;5.40;;;10.80;99.90;;;;;;5013240;28;20025;-67
2022/09/22 02:30:47;;;;;;;11.85;6.60;;;10.90;99.90;;;;;;5012800;28;20034;-67
2022/09/22 02:33:13;;;;;;;13.52;6.10;;;10.90;99.90;;;;;;5013325;28;20442;-67
2022/09/22 02:35:44;;;;;;;7.22;4.93;;;10.90;99.90;;;;;;5012916;28;20486;-67
2022/09/22 02:38:18;;;;;;;11.52;6.18;;;10.80;99.90;;;;;;5013169;28;20109;-67
2022/09/22 02:40:54;;;;;;;9.18;5.45;;;10.70;99.90;;;;;;5012174;28;20022;-67
2022/09/22 02:43:26;;;;;;;14.60;5.95;;;10.70;99.90;;;;;;5013198;28;20037;-67
2022/09/22 02:46:03;;;;;;;9.60;6.28;;;10.90;99.90;;;;;;5012888;28;20041;-67
2022/09/22 02:48:37;;;;;;;14.00;5.70;;;11.00;99.90;;;;;;5013115;28;20030;-67
2022/09/22 02:51:04;;;;;;;10.20;5.70;;;10.90;99.90;;;;;;5011651;28;20042;-67
2022/09/22 02:53:33;;;;;;;10.65;6.00;;;10.50;99.90;;;;;;5012535;28;20044;-67
2022/09/22 02:55:59;;;;;;;14.93;6.53;;;10.30;99.90;;;;;;5012822;28;20037;-67
2022/09/22 02:58:25;;;;;;;11.95;6.22;;;10.40;99.90;;;;;;5012984;28;20044;-66
2022/09/22 03:00:51;;;;;;;12.88;5.85;;;10.30;99.90;;;;;;5012846;28;20561;-67
2022/09/22 03:03:16;;;;;;;15.07;6.97;;;10.20;99.90;;;;;;5012890;28;20390;-67
2022/09/22 03:05:42;;;;;;;10.93;6.07;;;10.40;99.90;;;;;;5012728;28;20038;-67
2022/09/22 03:08:08;;;;;;;15.05;6.80;;;10.30;99.90;;;;;;5012278;28;20061;-67
2022/09/22 03:10:34;;;;;;;9.70;6.43;;;10.50;99.90;;;;;;5012831;28;20034;-67
2022/09/22 03:12:59;;;;;;;9.48;6.50;;;10.50;99.90;;;;;;5012699;28;20026;-67
2022/09/22 03:15:25;;;;;;;9.18;6.35;;;10.50;99.90;;;;;;4996585;28;20062;-67
2022/09/22 03:17:51;;;;;;;12.60;6.20;;;10.60;99.90;;;;;;5016426;28;20109;-66
2022/09/22 03:20:17;;;;;;;17.33;7.10;;;10.60;99.90;;;;;;5016352;28;20447;-67
2022/09/22 03:22:43;;;;;;;13.82;6.60;;;10.70;99.90;;;;;;5016073;28;20033;-67
2022/09/22 03:25:09;;;;;;;11.13;6.53;;;10.50;99.90;;;;;;5016147;28;20021;-67
2022/09/22 03:27:36;;;;;;;15.63;6.70;;;10.60;99.90;;;;;;5016274;28;20360;-67
2022/09/22 03:30:03;;;;;;;18.92;7.55;;;10.50;99.90;;;;;;5016493;28;20410;-67
2022/09/22 03:32:30;;;;;;;12.65;6.75;;;10.60;99.90;;;;;;5016203;28;20439;-67
2022/09/22 03:34:56;;;;;;;10.85;6.50;;;10.30;99.90;;;;;;5016167;28;20033;-67
2022/09/22 03:37:22;;;;;;;10.48;6.97;;;10.40;99.90;;;;;;5014500;28;20038;-67
2022/09/22 03:39:47;;;;;;;8.00;6.38;;;10.30;99.90;;;;;;5016042;28;20028;-67
2022/09/22 03:42:13;;;;;;;10.85;7.47;;;10.30;99.90;;;;;;5014745;28;20498;-67
2022/09/22 03:44:39;;;;;;;11.60;6.82;;;10.30;99.90;;;;;;5015782;28;20030;-67
2022/09/22 03:47:05;;;;;;;12.20;6.55;;;10.30;99.90;;;;;;5015916;28;20028;-67
2022/09/22 03:49:31;;;;;;;10.95;6.60;;;10.20;99.90;;;;;;5014770;28;20378;-67
2022/09/22 03:51:57;;;;;;;15.73;5.95;;;10.20;99.90;;;;;;5015581;28;20033;-67
2022/09/22 03:54:22;;;;;;;15.95;7.43;;;10.10;99.90;;;;;;5015488;28;20026;-69
2022/09/22 03:56:49;;;;;;;11.30;7.20;;;10.20;99.90;;;;;;5015788;28;20033;-67
2022/09/22 03:59:15;;;;;;;16.65;7.55;;;10.20;99.90;;;;;;5015559;28;20022;-67
2022/09/22 04:01:41;;;;;;;12.30;7.63;;;10.40;99.90;;;;;;5015624;28;20033;-67
2022/09/22 04:04:07;;;;;;;13.07;7.75;;;10.50;99.90;;;;;;5016375;28;20370;-67
2022/09/22 04:06:33;;;;;;;13.10;7.90;;;10.30;99.90;;;;;;5015290;28;20038;-67
2022/09/22 04:09:00;;;;;;;12.05;7.85;;;10.30;99.90;;;;;;5015547;28;20026;-67
2022/09/22 04:11:26;;;;;;;9.43;7.03;;;10.40;99.90;;;;;;5015552;28;20041;-67
2022/09/22 04:13:53;;;;;;;16.30;8.65;;;10.30;99.90;;;;;;5015233;28;20101;-67
2022/09/22 04:16:19;;;;;;;13.52;7.22;;;10.10;99.90;;;;;;5009012;28;20066;-67
2022/09/22 04:18:45;;;;;;;16.85;7.95;;;10.20;99.90;;;;;;5013858;28;20463;-67
2022/09/22 04:21:11;;;;;;;19.33;8.85;;;10.30;99.90;;;;;;5015269;28;20038;-67
2022/09/22 04:23:37;;;;;;;14.15;7.97;;;10.40;99.90;;;;;;5014784;28;20028;-67
2022/09/22 04:26:04;;;;;;;13.07;8.18;;;10.20;99.90;;;;;;5015006;28;20405;-67
2022/09/22 04:28:30;;;;;;;14.25;8.57;;;10.20;99.90;;;;;;5015191;28;20040;-67
2022/09/22 04:30:56;;;;;;;12.00;8.43;;;10.30;99.90;;;;;;5014848;28;20030;-67
2022/09/22 04:33:23;;;;;;;13.60;8.98;;;10.30;99.90;;;;;;5014924;28;20037;-67
2022/09/22 04:35:49;;;;;;;17.90;9.73;;;10.40;99.90;;;;;;5014705;28;20089;-67
2022/09/22 04:38:15;;;;;;;15.70;9.38;;;10.40;99.90;;;;;;5014957;28;20033;-67
2022/09/22 04:40:40;;;;;;;16.90;9.40;;;10.30;99.90;;;;;;5014670;28;20095;-67
2022/09/22 04:43:06;;;;;;;12.88;9.20;;;10.20;99.90;;;;;;5014827;28;20026;-66
2022/09/22 04:45:32;;;;;;;13.38;8.73;;;10.10;99.90;;;;;;5014836;28;20091;-67
2022/09/22 04:47:58;;;;;;;12.90;9.02;;;9.90;99.90;;;;;;4996945;28;20042;-67
2022/09/22 04:50:24;;;;;;;13.00;8.90;;;9.60;99.90;;;;;;5006801;28;20026;-67
2022/09/22 04:52:51;;;;;;;15.77;9.50;;;9.50;99.90;;;;;;5014532;28;20029;-67
2022/09/22 04:55:18;;;;;;;14.18;10.32;;;9.60;99.90;;;;;;5014601;28;20073;-67
2022/09/22 04:57:51;;;;;;;19.90;11.23;;;9.70;99.90;;;;;;5014489;28;20084;-67
2022/09/22 05:00:18;;;;;;;23.02;12.00;;;9.90;99.90;;;;;;5014330;28;20032;-67
2022/09/22 05:02:45;;;;;;;23.88;10.20;;;10.00;99.90;;;;;;5014490;28;20030;-67
2022/09/22 05:05:11;;;;;;;20.40;9.98;;;9.80;99.90;;;;;;5014074;28;20026;-67
2022/09/22 05:07:48;;;;;;;19.27;9.65;;;9.70;99.90;;;;;;5014617;28;20044;-66
2022/09/22 05:10:18;;;;;;;22.45;10.18;;;9.90;99.90;;;;;;5001930;28;20033;-67
2022/09/22 05:12:45;;;;;;;30.02;9.48;;;9.80;99.90;;;;;;5014411;28;20030;-67
2022/09/22 05:15:15;;;;;;;23.33;10.55;;;10.00;99.90;;;;;;5000430;28;20022;-67
2022/09/22 05:17:49;;;;;;;22.13;10.55;;;10.20;99.90;;;;;;5014381;28;20051;-66
2022/09/22 05:20:16;;;;;;;24.25;11.30;;;10.10;99.90;;;;;;5013809;28;20034;-67
2022/09/22 05:22:42;;;;;;;24.98;11.52;;;10.10;99.90;;;;;;5014161;28;20029;-67
2022/09/22 05:25:10;;;;;;;21.60;10.23;;;10.10;99.90;;;;;;5013672;28;20026;-67
2022/09/22 05:27:41;;;;;;;16.48;10.25;;;10.00;99.90;;;;;;5013893;28;20026;-67
2022/09/22 05:30:07;;;;;;;33.90;11.82;;;9.90;99.90;;;;;;5013640;28;20026;-68
2022/09/22 05:32:33;;;;;;;21.45;12.23;;;10.20;99.90;;;;;;5014070;28;20434;-67
2022/09/22 05:34:59;;;;;;;25.35;12.57;;;10.20;99.90;;;;;;5013519;28;20061;-67
2022/09/22 05:37:24;;;;;;;26.27;11.48;;;10.40;99.90;;;;;;5013392;28;20050;-67
2022/09/22 05:39:50;;;;;;;24.85;12.13;;;10.40;99.90;;;;;;5013561;28;20022;-67
2022/09/22 05:42:16;;;;;;;23.70;12.55;;;10.50;99.90;;;;;;5013677;28;20048;-67
2022/09/22 05:44:41;;;;;;;26.67;12.93;;;10.40;99.90;;;;;;5013464;28;20026;-67
2022/09/22 05:47:07;;;;;;;29.02;13.90;;;10.50;99.90;;;;;;5013798;28;20032;-67
2022/09/22 05:49:33;;;;;;;36.85;13.60;;;10.40;99.90;;;;;;5013455;28;20033;-67
2022/09/22 05:51:59;;;;;;;24.67;10.95;;;10.50;99.90;;;;;;5010592;28;20029;-67
2022/09/22 05:54:24;;;;;;;22.92;12.23;;;10.30;99.90;;;;;;5014864;28;20038;-67
2022/09/22 05:56:50;;;;;;;26.90;12.73;;;10.20;99.90;;;;;;5006777;28;20053;-67
2022/09/22 05:59:32;;;;;;;30.70;13.35;;;10.30;99.90;;;;;;5004325;28;20059;-67
2022/09/22 06:01:57;;;;;;;25.30;11.77;;;10.40;99.90;;;;;;5009140;28;20050;-67
2022/09/22 06:04:23;;;;;;;21.48;11.98;;;10.50;99.90;;;;;;5016579;28;20367;-66
2022/09/22 06:06:49;;;;;;;22.98;12.10;;;10.20;99.90;;;;;;5012984;28;20046;-66
2022/09/22 06:09:15;;;;;;;26.50;13.55;;;10.20;99.90;;;;;;5011183;28;20077;-67
2022/09/22 06:11:41;;;;;;;33.33;13.65;;;10.40;99.90;;;;;;5014241;28;20433;-67
2022/09/22 06:14:07;;;;;;;36.58;12.90;;;10.60;99.90;;;;;;5023536;28;20054;-68
2022/09/22 06:16:32;;;;;;;24.83;13.23;;;10.60;99.90;;;;;;5015613;28;20018;-67
2022/09/22 06:18:58;;;;;;;37.42;15.07;;;10.70;99.90;;;;;;5012796;28;20518;-67
2022/09/22 06:21:24;;;;;;;35.85;13.77;;;10.80;99.90;;;;;;5015408;28;20042;-67
2022/09/22 06:23:51;;;;;;;31.48;15.23;;;10.90;99.90;;;;;;5014059;28;20025;-67
2022/09/22 06:26:16;;;;;;;35.53;15.30;;;11.10;99.90;;;;;;5022337;28;20036;-67
2022/09/22 06:28:42;;;;;;;34.13;15.93;;;11.20;99.90;;;;;;5022684;28;20021;-67
2022/09/22 06:31:08;;;;;;;32.35;14.63;;;11.20;99.90;;;;;;5010572;28;20175;-67
2022/09/22 06:33:34;;;;;;;29.50;14.68;;;11.10;99.90;;;;;;5012331;28;20489;-67
2022/09/22 06:36:01;;;;;;;32.15;15.63;;;10.90;99.90;;;;;;5012919;28;20368;-67
2022/09/22 06:38:26;;;;;;;43.28;15.43;;;10.90;99.90;;;;;;5012907;28;20221;-66
2022/09/22 06:40:57;;;;;;;40.05;15.80;;;10.90;99.90;;;;;;5011497;28;20135;-66
2022/09/22 06:43:23;;;;;;;31.98;15.93;;;10.90;99.90;;;;;;5013087;28;20030;-67
2022/09/22 06:45:50;;;;;;;37.83;16.42;;;10.90;99.90;;;;;;5012399;28;20471;-67
2022/09/22 06:48:16;;;;;;;50.88;16.85;;;11.10;99.90;;;;;;5013148;28;20034;-67
2022/09/22 06:50:47;;;;;;;31.35;17.58;;;11.00;99.90;;;;;;5016165;28;20033;-67
2022/09/22 06:53:13;;;;;;;31.53;17.63;;;11.20;99.90;;;;;;5012394;28;20030;-67
2022/09/22 06:55:42;;;;;;;35.35;16.88;;;11.00;99.90;;;;;;5021457;28;20084;-67
2022/09/22 06:58:08;;;;;;;40.75;18.45;;;11.00;99.90;;;;;;5018715;28;20025;-67
2022/09/22 07:00:34;;;;;;;34.15;17.15;;;10.90;99.90;;;;;;5011540;28;20044;-67
2022/09/22 07:03:07;;;;;;;45.58;19.88;;;11.00;99.90;;;;;;5019279;28;20041;-67
2022/09/22 07:05:35;;;;;;;43.03;18.63;;;11.10;99.90;;;;;;5016570;28;20034;-66
2022/09/22 07:08:03;;;;;;;65.50;20.63;;;11.30;99.90;;;;;;5012485;28;20101;-63
2022/09/22 07:10:30;;;;;;;36.08;19.00;;;11.20;99.90;;;;;;5020799;28;20048;-67
2022/09/22 07:12:59;;;;;;;65.13;19.38;;;11.30;99.90;;;;;;5024735;28;20071;-66
2022/09/22 07:15:24;;;;;;;51.03;20.75;;;11.20;99.90;;;;;;5018152;28;20022;-67
2022/09/22 07:17:52;;;;;;;38.95;19.58;;;11.20;99.90;;;;;;5016039;28;20489;-67
2022/09/22 07:20:19;;;;;;;47.65;20.27;;;11.20;99.90;;;;;;5020339;28;20034;-67
2022/09/22 07:22:45;;;;;;;68.03;19.50;;;11.40;99.90;;;;;;5020734;28;20105;-67
2022/09/22 07:25:12;;;;;;;46.85;20.17;;;11.50;99.90;;;;;;5021312;28;20022;-67
2022/09/22 07:27:38;;;;;;;44.03;20.35;;;11.60;99.90;;;;;;5021498;28;20061;-67
2022/09/22 07:30:04;;;;;;;53.58;19.15;;;11.70;99.90;;;;;;5018630;28;20116;-67
2022/09/22 07:32:33;;;;;;;38.70;19.05;;;11.80;99.90;;;;;;5007914;28;20026;-64
2022/09/22 07:34:59;;;;;;;35.83;19.08;;;12.00;99.90;;;;;;5006644;28;20538;-67
2022/09/22 07:37:28;;;;;;;41.38;20.23;;;12.20;99.90;;;;;;5015409;28;20096;-69
2022/09/22 07:39:55;;;;;;;30.00;18.33;;;12.20;99.90;;;;;;5015814;28;20498;-69
2022/09/22 07:42:21;;;;;;;37.85;18.05;;;12.50;99.90;;;;;;5014467;28;20050;-69
2022/09/22 07:50:16;;;;;;;25.83;16.15;;;12.80;99.90;;;;;;5006972;28;20171;-70
2022/09/22 07:52:48;;;;;;;29.55;15.20;;;12.80;99.90;;;;;;5015629;28;20100;-69
2022/09/22 07:55:14;;;;;;;27.67;15.13;;;13.00;99.90;;;;;;5015595;28;20022;-69
2022/09/22 07:57:40;;;;;;;29.73;15.30;;;13.00;99.90;;;;;;5015605;28;20038;-69
2022/09/22 08:00:06;;;;;;;26.13;14.15;;;13.10;99.90;;;;;;5014958;28;20030;-69
2022/09/22 08:02:39;;;;;;;23.77;13.30;;;13.10;99.90;;;;;;5014933;28;20046;-69
2022/09/22 08:05:07;;;;;;;30.20;15.18;;;13.30;99.90;;;;;;5015454;28;20394;-69
2022/09/22 08:07:35;;;;;;;22.10;13.43;;;13.40;99.90;;;;;;5015549;28;20394;-69
2022/09/22 08:10:00;;;;;;;26.67;12.95;;;13.50;99.90;;;;;;5015227;28;20045;-69
2022/09/22 08:12:27;;;;;;;20.50;13.27;;;13.70;99.90;;;;;;5015502;28;20034;-69
2022/09/22 08:14:52;;;;;;;21.67;12.05;;;13.90;99.90;;;;;;5014956;28;20461;-68
2022/09/22 08:17:18;;;;;;;31.25;12.85;;;13.90;99.90;;;;;;5015166;28;20034;-70
2022/09/22 08:19:44;;;;;;;22.27;12.10;;;14.00;99.90;;;;;;5015136;28;20092;-69
2022/09/22 08:22:11;;;;;;;19.98;11.50;;;13.90;99.90;;;;;;5014832;28;20537;-70
2022/09/22 08:24:37;;;;;;;25.70;12.55;;;14.10;99.90;;;;;;5015048;28;20438;-70
2022/09/22 08:27:03;;;;;;;19.60;10.80;;;14.30;99.90;;;;;;5014735;28;20065;-69
2022/09/22 08:29:30;;;;;;;23.08;11.13;;;14.80;99.90;;;;;;5015040;28;20037;-69
2022/09/22 08:31:56;;;;;;;21.67;12.10;;;15.10;99.90;;;;;;5013760;28;20465;-69
2022/09/22 08:34:21;;;;;;;23.40;11.23;;;15.10;99.90;;;;;;5001270;28;20101;-69
2022/09/22 08:36:49;;;;;;;24.17;13.80;;;14.90;99.90;;;;;;5015058;28;20034;-69
2022/09/22 08:39:18;;;;;;;28.70;13.57;;;15.10;99.90;;;;;;5014798;28;20029;-69
2022/09/22 08:42:17;;;;;;;24.20;14.05;;;15.20;99.90;;;;;;5014728;28;20038;-69
2022/09/22 08:45:02;;;;;;;29.10;17.38;;;15.30;99.90;;;;;;5007245;28;20078;-69
2022/09/22 08:53:43;;;;;;;35.83;15.32;;;15.30;99.90;;;;;;5034089;28;20378;-69
2022/09/22 08:56:18;;;;;;;23.55;13.98;;;15.50;99.90;;;;;;5034280;28;20064;-70
2022/09/22 08:58:55;;;;;;;25.95;13.43;;;15.60;99.90;;;;;;5033964;28;20030;-70
2022/09/22 09:01:41;;;;;;;27.40;15.10;;;15.60;99.90;;;;;;5034209;28;20041;-69
2022/09/22 09:04:27;;;;;;;25.38;13.52;;;15.70;99.90;;;;;;5013061;28;20503;-69
2022/09/22 09:07:09;;;;;;;28.08;12.93;;;15.40;99.90;;;;;;5034199;28;20033;-70
2022/09/22 09:09:49;;;;;;;27.10;13.48;;;15.60;99.90;;;;;;5034239;28;20025;-69
2022/09/22 09:12:29;;;;;;;23.98;12.30;;;15.70;99.90;;;;;;5032936;28;20033;-69
2022/09/22 09:15:30;;;;;;;18.67;11.10;;;15.90;99.90;;;;;;5033751;28;20025;-69
2022/09/22 09:18:02;;;;;;;25.80;12.25;;;16.10;99.90;;;;;;5032705;28;20036;-69
2022/09/22 09:20:43;;;;;;;21.70;10.55;;;16.30;99.90;;;;;;5033906;28;20034;-69
2022/09/22 09:23:23;;;;;;;21.38;10.68;;;16.60;99.90;;;;;;5033943;28;20482;-69
2022/09/22 09:25:52;;;;;;;15.90;8.98;;;16.70;99.90;;;;;;5027839;28;20030;-69
2022/09/22 09:28:25;;;;;;;15.70;9.68;;;16.50;99.90;;;;;;5014146;28;20022;-69
2022/09/22 09:30:56;;;;;;;13.18;7.82;;;16.60;99.90;;;;;;5012315;28;20057;-69
2022/09/22 09:33:28;;;;;;;18.80;7.75;;;16.60;99.90;;;;;;5013896;28;20049;-69
2022/09/22 09:35:54;;;;;;;12.35;7.43;;;16.80;99.90;;;;;;5013861;28;20022;-69
2022/09/22 09:38:34;;;;;;;17.70;8.32;;;17.00;99.90;;;;;;5013874;28;20034;-69
2022/09/22 09:41:13;;;;;;;18.92;7.50;;;16.90;99.90;;;;;;5013474;28;20034;-69
2022/09/22 09:43:44;;;;;;;17.45;6.50;;;17.40;99.90;;;;;;5013698;28;20374;-70
2022/09/22 09:46:28;;;;;;;12.20;6.13;;;17.50;99.90;;;;;;5013623;28;20081;-69
2022/09/22 09:49:16;;;;;;;13.63;6.60;;;17.50;99.90;;;;;;5013762;28;20053;-69
2022/09/22 09:51:55;;;;;;;9.50;5.38;;;17.40;99.90;;;;;;5002504;28;20386;-69
2022/09/22 09:54:22;;;;;;;14.35;5.60;;;17.60;99.90;;;;;;5013385;28;20421;-69
2022/09/22 09:57:15;;;;;;;17.90;5.05;;;17.70;99.90;;;;;;5013704;28;20026;-69
2022/09/22 10:03:02;;;;;;;9.15;4.10;;;17.80;99.90;;;;;;5013390;28;20407;-69
2022/09/22 10:05:29;;;;;;;8.45;4.03;;;18.10;99.90;;;;;;5012037;28;20501;-69
2022/09/22 10:08:13;;;;;;;11.45;3.70;;;18.20;99.90;;;;;;5013493;28;20083;-69
2022/09/22 10:10:40;;;;;;;9.63;4.43;;;18.30;99.90;;;;;;5013113;28;20053;-69
2022/09/22 10:13:05;;;;;;;15.38;5.07;;;17.60;99.90;;;;;;5013025;28;20109;-69
2022/09/22 10:15:37;;;;;;;8.13;4.80;;;18.00;99.90;;;;;;5013263;28;20116;-69
2022/09/22 10:18:23;;;;;;;;;;;18.10;99.90;;;;;;5013758;28;20494;-69
2022/09/22 10:21:21;;;;;;;10.50;4.20;;;18.20;99.90;;;;;;5002479;28;19917;-69
2022/09/22 10:23:59;;;;;;;9.60;4.72;;;18.00;99.90;;;;;;4999981;28;20366;-69
2022/09/22 10:26:26;;;;;;;13.13;4.90;;;18.40;99.90;;;;;;5012954;28;20029;-69
2022/09/22 10:29:10;;;;;;;7.60;4.28;;;18.50;99.90;;;;;;5012836;28;20022;-69
2022/09/22 10:31:37;;;;;;;9.05;3.85;;;18.30;99.90;;;;;;5011627;28;20045;-69
2022/09/22 10:34:05;;;;;;;9.27;4.00;;;18.60;99.90;;;;;;5012402;28;20558;-69
2022/09/22 10:36:32;;;;;;;8.45;3.45;;;18.70;99.00;;;;;;5012672;28;20057;-69
2022/09/22 10:38:58;;;;;;;9.73;3.72;;;19.20;98.70;;;;;;5012803;28;20018;-68
2022/09/22 10:41:32;;;;;;;14.88;5.15;;;19.30;98.40;;;;;;5012871;28;20045;-69
2022/09/22 10:44:10;;;;;;;10.60;5.57;;;19.80;97.80;;;;;;5011506;28;20042;-69
2022/09/22 10:46:51;;;;;;;10.13;4.68;;;19.80;98.20;;;;;;5011606;28;20044;-69
2022/09/22 10:49:35;;;;;;;8.77;4.90;;;19.90;96.90;;;;;;5012800;28;20041;-69
2022/09/22 10:52:16;;;;;;;8.70;4.68;;;19.90;97.30;;;;;;5011289;28;20080;-69
2022/09/22 10:55:04;;;;;;;7.50;4.57;;;19.90;96.50;;;;;;5011464;28;20032;-69
2022/09/22 10:57:44;;;;;;;9.57;4.72;;;19.90;96.90;;;;;;5011480;28;20486;-68
2022/09/22 11:00:16;;;;;;;10.48;4.88;;;19.90;96.80;;;;;;5012890;28;20411;-69
2022/09/22 11:03:27;;;;;;;11.07;5.10;;;20.30;96.70;;;;;;5012444;28;20034;-69
2022/09/22 11:12:18;;;;;;;6.72;2.40;;;21.10;95.00;;;;;;4998975;28;20470;-69
2022/09/22 11:15:17;;;;;;;9.85;2.33;;;21.10;94.70;;;;;;5012354;28;20037;-69
2022/09/22 11:18:07;;;;;;;5.30;2.35;;;21.60;93.40;;;;;;5012656;28;20034;-69
2022/09/22 11:20:41;;;;;;;7.03;2.88;;;21.50;93.00;;;;;;5012582;28;20265;-70
2022/09/22 11:23:30;;;;;;;5.55;2.53;;;21.60;92.30;;;;;;5012074;28;20049;-69
2022/09/22 11:26:20;;;;;;;6.05;2.40;;;22.10;92.90;;;;;;5012357;28;20057;-70
2022/09/22 11:29:22;;;;;;;8.77;2.60;;;22.50;92.00;;;;;;5012218;28;20030;-70
2022/09/22 11:31:54;;;;;;;7.20;2.53;;;22.60;92.10;;;;;;5012280;28;20088;-71
2022/09/22 11:34:41;;;;;;;4.55;2.40;;;23.20;91.20;;;;;;5012036;28;20042;-70
2022/09/22 11:37:45;;;;;;;5.00;2.42;;;23.90;91.20;;;;;;5004239;28;20116;-72
2022/09/22 11:40:35;;;;;;;9.63;2.28;;;24.40;90.50;;;;;;5009787;28;20034;-72
2022/09/22 11:43:19;;;;;;;10.23;2.30;;;23.90;90.10;;;;;;5012619;28;20061;-72
2022/09/22 11:45:56;;;;;;;3.75;1.63;;;24.10;91.00;;;;;;5011872;28;20458;-72
2022/09/22 11:48:41;;;;;;;10.98;2.10;;;24.40;87.60;;;;;;5015508;28;20080;-72
2022/09/22 11:51:16;;;;;;;5.95;1.92;;;23.90;90.20;;;;;;5014217;28;20479;-71
2022/09/22 11:53:55;;;;;;;6.43;1.80;;;25.00;87.20;;;;;;5007036;28;20034;-71
2022/09/22 11:56:45;;;;;;;5.43;1.73;;;25.00;85.60;;;;;;5015635;28;20030;-70
2022/09/22 11:59:39;;;;;;;6.25;1.58;;;25.00;86.10;;;;;;5005016;28;20025;-71
2022/09/22 12:02:16;;;;;;;4.03;1.60;;;24.80;86.00;;;;;;5015865;28;20041;-70
2022/09/22 12:04:49;;;;;;;7.47;1.90;;;24.70;85.30;;;;;;5021359;28;20032;-71
2022/09/22 12:07:25;;;;;;;6.43;1.85;;;25.10;82.10;;;;;;5019051;28;20041;-69
2022/09/22 12:09:56;;;;;;;4.90;2.38;;;24.90;82.30;;;;;;5020239;28;20068;-71
2022/09/22 12:12:23;;;;;;;5.35;2.45;;;25.20;84.40;;;;;;5017733;28;20443;-71
2022/09/22 12:15:28;;;;;;;6.55;2.10;;;24.50;83.60;;;;;;5017058;28;20025;-70
2022/09/22 12:17:53;;;;;;;5.80;1.85;;;24.80;83.80;;;;;;5011990;28;20029;-71
2022/09/22 12:20:48;;;;;;;6.72;2.13;;;24.80;85.50;;;;;;5015177;28;20113;-71
2022/09/22 12:23:35;;;;;;;12.77;2.33;;;24.80;84.20;;;;;;4987699;28;20087;-67
2022/09/22 12:26:05;;;;;;;4.53;2.13;;;23.80;84.40;;;;;;5014572;28;20030;-67
2022/09/22 12:28:41;;;;;;;7.55;2.42;;;22.20;86.00;;;;;;5015374;28;20029;-71
2022/09/22 12:31:12;;;;;;;3.92;1.83;;;22.90;87.80;;;;;;5005911;28;20037;-71
2022/09/22 12:33:53;;;;;;;2.70;1.67;;;24.20;86.30;;;;;;5026709;28;20045;-70
2022/09/22 12:36:31;;;;;;;9.47;2.03;;;24.30;84.20;;;;;;5018671;28;20038;-70
2022/09/22 12:39:20;;;;;;;5.57;1.90;;;24.50;83.60;;;;;;5018435;28;20112;-71
2022/09/22 12:41:57;;;;;;;5.10;1.75;;;25.30;81.70;;;;;;5023213;28;20045;-71
2022/09/22 12:44:35;;;;;;;8.90;1.73;;;25.90;81.80;;;;;;5024877;28;20045;-71
2022/09/22 12:47:16;;;;;;;4.72;1.77;;;25.40;80.60;;;;;;5024349;28;20029;-71
2022/09/22 12:49:55;;;;;;;6.30;1.98;;;25.80;82.60;;;;;;5005707;28;20018;-72
2022/09/22 12:52:39;;;;;;;6.53;1.55;;;27.10;78.60;;;;;;5012908;28;20030;-71
2022/09/22 12:55:28;;;;;;;3.83;1.60;;;28.20;77.00;;;;;;5012927;28;20037;-71
2022/09/22 12:57:56;;;;;;;5.90;2.10;;;28.50;75.50;;;;;;5008032;28;20026;-71
2022/09/22 13:00:38;;;;;;;6.40;1.90;;;27.80;75.50;;;;;;5010574;28;20394;-71
2022/09/22 13:03:36;;;;;;;12.38;2.60;;;26.20;77.20;;;;;;5022708;28;20045;-72
2022/09/22 13:06:23;;;;;;;5.45;2.55;;;26.20;78.00;;;;;;5002973;28;20045;-71
2022/09/22 13:08:51;;;;;;;10.82;2.58;;;26.70;78.60;;;;;;5003894;28;20026;-71
2022/09/22 13:11:17;;;;;;;7.93;1.85;;;27.30;77.30;;;;;;5014630;28;20030;-71
2022/09/22 13:13:47;;;;;;;5.20;1.90;;;25.90;76.40;;;;;;5023924;28;20026;-70
2022/09/22 13:16:13;;;;;;;10.90;2.33;;;26.20;77.20;;;;;;5021975;28;20037;-71
2022/09/22 13:18:57;;;;;;;4.07;2.30;;;26.60;76.30;;;;;;5015210;28;20379;-71
2022/09/22 13:21:25;;;;;;;5.07;2.30;;;26.00;77.90;;;;;;5014421;28;20479;-71
2022/09/22 13:23:57;;;;;;;3.65;1.83;;;26.00;77.90;;;;;;5015532;28;20033;-71
2022/09/22 13:26:34;;;;;;;6.82;2.70;;;25.80;77.30;;;;;;5025313;28;20483;-70
2022/09/22 13:29:10;;;;;;;5.72;2.42;;;25.60;77.20;;;;;;5009398;28;20065;-71